Time;durP1;ratioP1;P1;durP2;ratioP2;P2;SDS_P1;SDS_P2;PMS_P1;PMS_P2;Temp;Humidity;BMP_temperature;BMP_pressure;BME280_temperature;BME280_humidity;BME280_pressure;Samples;Min_cycle;Max_cycle;Signal;HPM_P1;HPM_P2
2021/11/17 02:26:54;;;;;;;11.90;6.40;;;9.40;76.50;;;;;;5054397;28;20541;-79
2021/11/17 02:29:29;;;;;;;12.55;7.28;;;9.40;75.80;;;;;;5054574;28;20369;-79
2021/11/17 02:32:20;;;;;;;11.63;7.03;;;9.40;75.90;;;;;;5053552;28;20048;-79
2021/11/17 02:34:53;;;;;;;12.65;7.45;;;9.50;76.00;;;;;;5053810;28;20124;-80
2021/11/17 02:37:44;;;;;;;11.68;7.20;;;9.50;75.90;;;;;;5054405;28;20040;-80
2021/11/17 02:40:10;;;;;;;12.52;8.13;;;9.40;75.90;;;;;;5053463;28;20063;-80
2021/11/17 02:42:58;;;;;;;11.40;6.68;;;9.50;75.90;;;;;;5053390;28;20049;-80
2021/11/17 02:45:51;;;;;;;11.30;6.85;;;9.50;75.90;;;;;;5054339;28;20384;-79
2021/11/17 02:48:35;;;;;;;13.05;7.70;;;9.50;76.00;;;;;;5053684;28;20062;-81
2021/11/17 02:51:32;;;;;;;11.15;6.53;;;9.50;75.90;;;;;;5053644;28;20170;-80
2021/11/17 02:54:42;;;;;;;11.65;6.63;;;9.50;76.00;;;;;;5053588;28;20223;-79
2021/11/17 02:57:26;;;;;;;11.25;7.18;;;9.50;75.90;;;;;;4996004;28;20065;-79
2021/11/17 03:00:11;;;;;;;11.63;7.03;;;9.50;75.90;;;;;;5031719;28;20033;-79
2021/11/17 03:02:54;;;;;;;11.65;7.05;;;9.50;75.90;;;;;;5053142;28;20025;-80
2021/11/17 03:05:39;;;;;;;11.93;7.32;;;9.50;75.90;;;;;;5053674;28;20033;-79
2021/11/17 03:08:22;;;;;;;12.00;7.35;;;9.50;75.90;;;;;;5053046;28;20036;-79
2021/11/17 03:11:26;;;;;;;11.60;6.70;;;9.50;75.90;;;;;;5053147;28;20489;-80
2021/11/17 03:14:01;;;;;;;11.15;6.72;;;9.50;76.00;;;;;;5054410;28;20078;-80
2021/11/17 03:16:33;;;;;;;10.95;7.00;;;9.50;75.90;;;;;;5052820;28;20485;-79
2021/11/17 03:19:17;;;;;;;12.02;6.90;;;9.50;75.90;;;;;;5070120;28;20064;-79
2021/11/17 03:22:18;;;;;;;12.15;7.38;;;9.50;76.00;;;;;;5053980;28;20025;-79
2021/11/17 03:24:56;;;;;;;11.57;7.20;;;9.50;76.00;;;;;;5031629;28;20041;-80
2021/11/17 03:27:21;;;;;;;12.70;7.43;;;9.50;75.90;;;;;;5052548;28;20056;-79
2021/11/17 03:30:05;;;;;;;13.45;7.15;;;9.50;75.80;;;;;;5052837;28;20032;-79
2021/11/17 03:32:49;;;;;;;11.98;7.00;;;9.50;75.90;;;;;;5052345;28;20045;-79
2021/11/17 03:35:49;;;;;;;9.93;6.43;;;9.50;75.90;;;;;;5052633;28;20086;-79
2021/11/17 03:38:50;;;;;;;11.25;6.32;;;9.50;76.00;;;;;;5054309;28;20499;-79
2021/11/17 03:41:43;;;;;;;11.13;6.93;;;9.50;76.00;;;;;;5037506;28;20040;-80
2021/11/17 03:44:33;;;;;;;11.52;6.75;;;9.50;75.90;;;;;;5052367;28;20484;-79
2021/11/17 03:47:17;;;;;;;11.88;6.82;;;9.50;75.90;;;;;;5052693;28;20036;-80
2021/11/17 03:50:13;;;;;;;10.88;7.05;;;9.50;75.80;;;;;;5052752;28;20029;-80
2021/11/17 03:52:42;;;;;;;11.45;6.80;;;9.50;75.90;;;;;;5055826;28;20032;-80
2021/11/17 03:55:32;;;;;;;11.57;7.22;;;9.50;76.50;;;;;;5052975;28;20025;-79
2021/11/17 03:58:09;;;;;;;9.27;6.22;;;9.50;76.00;;;;;;5053005;28;20454;-79
2021/11/17 04:00:51;;;;;;;10.85;6.65;;;9.50;75.90;;;;;;5054650;28;20052;-79
2021/11/17 04:03:38;;;;;;;11.88;6.75;;;9.50;75.90;;;;;;5056627;28;20035;-80
2021/11/17 04:06:21;;;;;;;9.82;6.07;;;9.50;75.80;;;;;;5056911;28;20373;-79
2021/11/17 04:09:21;;;;;;;11.75;6.75;;;9.60;75.90;;;;;;5057077;28;20064;-79
2021/11/17 04:12:12;;;;;;;11.07;6.78;;;9.60;76.00;;;;;;5056680;28;20432;-79
2021/11/17 04:14:46;;;;;;;10.80;6.30;;;9.50;75.90;;;;;;5058079;28;20036;-80
2021/11/17 04:17:12;;;;;;;10.80;6.30;;;9.60;75.90;;;;;;5056812;28;20040;-80
2021/11/17 04:20:11;;;;;;;11.48;6.82;;;9.50;75.80;;;;;;5057846;28;20129;-81
2021/11/17 04:22:56;;;;;;;10.60;6.40;;;9.60;76.00;;;;;;5042390;28;20119;-80
2021/11/17 04:26:06;;;;;;;13.07;7.83;;;9.60;75.90;;;;;;5056316;28;20067;-79
2021/11/17 04:28:37;;;;;;;10.77;6.60;;;9.60;75.90;;;;;;5056664;28;20037;-80
2021/11/17 04:31:15;;;;;;;11.27;6.53;;;9.60;75.80;;;;;;5055704;28;20444;-80
2021/11/17 04:34:17;;;;;;;11.40;6.75;;;9.60;76.00;;;;;;5055316;28;20096;-80
2021/11/17 04:36:52;;;;;;;12.02;7.07;;;9.60;76.00;;;;;;5055462;28;20079;-79
2021/11/17 04:39:25;;;;;;;10.20;6.00;;;9.60;75.90;;;;;;5055494;28;20389;-79
2021/11/17 04:42:13;;;;;;;10.32;6.80;;;9.60;75.90;;;;;;5055793;28;20043;-79
2021/11/17 04:44:51;;;;;;;13.00;7.30;;;9.50;75.90;;;;;;5055919;28;20035;-79
2021/11/17 04:47:48;;;;;;;11.30;6.57;;;9.50;75.80;;;;;;5055758;28;20094;-79
2021/11/17 04:50:51;;;;;;;11.77;6.82;;;9.60;76.00;;;;;;5055527;28;20167;-80
2021/11/17 04:53:53;;;;;;;10.18;6.30;;;9.60;76.00;;;;;;5055623;28;20044;-79
2021/11/17 04:56:38;;;;;;;11.48;6.95;;;9.50;75.90;;;;;;5055682;28;20037;-79
2021/11/17 04:59:06;;;;;;;9.98;6.55;;;9.50;75.80;;;;;;5055797;28;20098;-81
2021/11/17 05:02:15;;;;;;;12.45;7.15;;;9.50;75.80;;;;;;5055339;28;20035;-80
2021/11/17 05:05:12;;;;;;;12.27;6.88;;;9.60;76.10;;;;;;5055899;28;20496;-80
2021/11/17 05:08:10;;;;;;;10.70;6.53;;;9.50;75.90;;;;;;5057855;28;20461;-79
2021/11/17 05:11:01;;;;;;;11.00;6.53;;;9.60;76.00;;;;;;5055925;28;20076;-79
2021/11/17 05:13:35;;;;;;;11.38;6.65;;;9.50;75.90;;;;;;5054628;28;20033;-79
2021/11/17 05:16:01;;;;;;;10.27;6.75;;;9.50;75.90;;;;;;5056346;28;20033;-79
2021/11/17 05:18:43;;;;;;;9.88;6.15;;;9.60;75.90;;;;;;5055231;28;20045;-80
2021/11/17 05:21:43;;;;;;;10.48;7.05;;;9.60;76.00;;;;;;5055457;28;20029;-80
2021/11/17 05:24:43;;;;;;;10.32;6.63;;;9.60;76.00;;;;;;5056203;28;20021;-79
2021/11/17 05:27:15;;;;;;;10.35;6.10;;;9.60;76.00;;;;;;5054745;28;20461;-78
2021/11/17 05:29:49;;;;;;;11.90;6.50;;;9.60;75.90;;;;;;5055154;28;20029;-78
2021/11/17 05:32:27;;;;;;;12.30;6.60;;;9.60;75.90;;;;;;5054538;28;20046;-77
2021/11/17 05:35:26;;;;;;;10.82;6.75;;;9.60;75.90;;;;;;5055093;28;20033;-79
2021/11/17 05:38:04;;;;;;;12.32;6.93;;;9.60;76.00;;;;;;5054943;28;20033;-79
2021/11/17 05:40:54;;;;;;;10.77;6.65;;;9.60;75.90;;;;;;5055877;28;20162;-79
2021/11/17 05:43:57;;;;;;;11.68;5.90;;;9.60;76.00;;;;;;5055020;28;20036;-78
2021/11/17 05:46:38;;;;;;;11.02;6.45;;;9.60;76.00;;;;;;5055112;28;20056;-79
2021/11/17 05:49:33;;;;;;;11.82;6.53;;;9.60;75.90;;;;;;5055260;28;20120;-79
2021/11/17 05:52:26;;;;;;;10.45;6.53;;;9.60;76.00;;;;;;5054092;28;20021;-78
2021/11/17 05:55:18;;;;;;;10.85;6.28;;;9.60;75.90;;;;;;5054136;28;20036;-78
2021/11/17 05:58:22;;;;;;;10.68;6.40;;;9.60;75.90;;;;;;5042945;28;20045;-78
2021/11/17 06:01:18;;;;;;;9.85;5.65;;;9.50;76.00;;;;;;5054220;28;20029;-77
2021/11/17 06:03:58;;;;;;;10.48;6.32;;;9.60;76.00;;;;;;5054040;28;20104;-78
2021/11/17 06:06:24;;;;;;;10.55;6.22;;;9.60;75.90;;;;;;5055080;28;20029;-77
2021/11/17 06:08:50;;;;;;;11.52;7.00;;;9.60;75.90;;;;;;5054068;28;20036;-77
2021/11/17 06:11:18;;;;;;;10.35;6.53;;;9.60;75.90;;;;;;5055304;28;20481;-77
2021/11/17 06:13:44;;;;;;;9.32;5.97;;;9.60;75.90;;;;;;5037425;28;20083;-78
2021/11/17 06:16:10;;;;;;;10.38;5.70;;;9.60;75.90;;;;;;5054051;28;20086;-77
2021/11/17 06:18:37;;;;;;;11.57;6.43;;;9.60;75.80;;;;;;5054754;28;20025;-77
2021/11/17 06:21:08;;;;;;;10.70;6.07;;;9.60;75.80;;;;;;5037489;28;20458;-76
2021/11/17 06:23:55;;;;;;;9.93;6.47;;;9.60;75.90;;;;;;5053544;28;20060;-77
2021/11/17 06:26:24;;;;;;;11.27;6.60;;;9.60;76.00;;;;;;5054875;28;20090;-77
2021/11/17 06:28:57;;;;;;;10.88;6.38;;;9.60;75.80;;;;;;5054897;28;20480;-77
2021/11/17 06:31:24;;;;;;;10.88;6.35;;;9.60;75.80;;;;;;5053823;28;20033;-77
2021/11/17 06:33:50;;;;;;;10.13;6.00;;;9.60;75.80;;;;;;5070480;28;20045;-77
2021/11/17 06:36:17;;;;;;;11.43;6.82;;;9.60;75.80;;;;;;5053591;28;20040;-76
2021/11/17 06:38:44;;;;;;;11.55;7.47;;;9.60;75.80;;;;;;5055456;28;20132;-76
2021/11/17 06:41:11;;;;;;;10.75;6.65;;;9.60;75.80;;;;;;5053429;28;20401;-79
2021/11/17 06:43:37;;;;;;;11.85;6.90;;;9.60;75.80;;;;;;5053368;28;20021;-78
2021/11/17 06:46:03;;;;;;;11.25;6.60;;;9.60;75.80;;;;;;5052982;28;20485;-77
2021/11/17 06:48:30;;;;;;;11.73;6.10;;;9.60;75.80;;;;;;5054505;28;20108;-77
2021/11/17 06:50:58;;;;;;;11.30;6.55;;;9.60;75.80;;;;;;5054217;28;20025;-77
2021/11/17 06:53:25;;;;;;;11.98;7.10;;;9.70;75.80;;;;;;5054487;28;20021;-77
2021/11/17 06:55:52;;;;;;;11.75;6.43;;;9.70;75.80;;;;;;5054700;28;20025;-76
2021/11/17 06:58:18;;;;;;;10.98;6.43;;;9.60;75.70;;;;;;5053929;28;20037;-76
2021/11/17 07:00:46;;;;;;;12.23;7.05;;;9.70;75.80;;;;;;5053988;28;20029;-77
2021/11/17 07:03:13;;;;;;;10.90;6.00;;;9.70;75.80;;;;;;5053031;28;20025;-77
2021/11/17 07:05:39;;;;;;;9.57;5.95;;;9.70;75.80;;;;;;5053079;28;20393;-77
2021/11/17 07:08:05;;;;;;;10.57;6.35;;;9.70;75.80;;;;;;5053806;28;20037;-77
2021/11/17 07:10:32;;;;;;;9.90;5.90;;;9.70;75.80;;;;;;5052643;28;20028;-76
2021/11/17 07:12:59;;;;;;;10.43;6.03;;;9.70;75.80;;;;;;5053054;28;20477;-77
2021/11/17 07:15:27;;;;;;;10.15;6.03;;;9.70;75.80;;;;;;5053066;28;20419;-77
2021/11/17 07:17:53;;;;;;;10.20;6.10;;;9.70;75.80;;;;;;5054114;28;20033;-77
2021/11/17 07:20:20;;;;;;;9.80;5.80;;;9.70;75.80;;;;;;5052328;28;20025;-77
2021/11/17 07:22:46;;;;;;;9.73;5.65;;;9.70;75.80;;;;;;5052872;28;20029;-78
2021/11/17 07:25:19;;;;;;;10.55;6.43;;;9.70;75.80;;;;;;5053859;28;20036;-77
2021/11/17 07:27:45;;;;;;;10.80;6.55;;;9.70;75.80;;;;;;5069147;28;20033;-77
2021/11/17 07:30:14;;;;;;;13.52;7.13;;;9.70;75.80;;;;;;5053138;28;20025;-80
2021/11/17 07:32:40;;;;;;;11.25;6.32;;;9.70;75.80;;;;;;5068972;28;20473;-77
2021/11/17 07:35:07;;;;;;;10.20;6.30;;;9.70;75.80;;;;;;5052089;28;20037;-77
2021/11/17 07:37:34;;;;;;;12.35;6.85;;;9.70;75.80;;;;;;5053292;28;20048;-78
2021/11/17 07:39:59;;;;;;;11.48;6.65;;;9.70;75.80;;;;;;5052465;28;20027;-77
2021/11/17 07:42:25;;;;;;;10.20;6.43;;;9.70;75.80;;;;;;5052638;28;20385;-78
2021/11/17 07:44:52;;;;;;;11.27;6.82;;;9.70;75.80;;;;;;5053142;28;20023;-79
2021/11/17 07:47:18;;;;;;;11.63;6.68;;;9.80;76.50;;;;;;5052035;28;20037;-79
2021/11/17 07:49:44;;;;;;;10.75;6.28;;;9.70;75.80;;;;;;5053202;28;20060;-80
2021/11/17 07:52:09;;;;;;;10.20;6.18;;;9.70;75.80;;;;;;5052979;28;20465;-79
2021/11/17 07:54:35;;;;;;;12.23;6.28;;;9.80;75.80;;;;;;5054060;28;20067;-79
2021/11/17 07:57:03;;;;;;;11.38;6.60;;;9.80;75.80;;;;;;5052609;28;20018;-79
2021/11/17 07:59:31;;;;;;;10.82;6.80;;;9.70;75.80;;;;;;5052749;28;20525;-79
2021/11/17 08:02:05;;;;;;;10.13;6.10;;;9.70;75.80;;;;;;5052408;28;20116;-79
2021/11/17 08:04:34;;;;;;;;;;;9.80;75.90;;;;;;5069200;28;20094;-79
2021/11/17 08:07:03;;;;;;;9.65;5.30;;;9.80;75.70;;;;;;5085374;28;19908;-78
2021/11/17 08:09:30;;;;;;;9.60;5.78;;;9.70;75.60;;;;;;5053225;28;20017;-78
2021/11/17 08:11:56;;;;;;;11.52;6.32;;;9.80;75.80;;;;;;5068687;28;20035;-78
2021/11/17 08:14:22;;;;;;;11.50;6.43;;;9.70;75.80;;;;;;5053847;28;20361;-78
2021/11/17 08:16:47;;;;;;;10.82;6.47;;;9.80;75.90;;;;;;5052146;28;20440;-78
2021/11/17 08:19:13;;;;;;;9.63;6.30;;;9.80;75.90;;;;;;5052044;28;20058;-79
2021/11/17 08:21:39;;;;;;;11.43;6.53;;;9.80;75.90;;;;;;5052263;28;20033;-79
2021/11/17 08:24:05;;;;;;;9.50;6.07;;;9.70;75.80;;;;;;5052015;28;20518;-78
2021/11/17 08:26:31;;;;;;;11.00;6.30;;;9.80;75.90;;;;;;5051783;28;20099;-78
2021/11/17 08:28:57;;;;;;;11.48;7.15;;;9.80;75.90;;;;;;5068554;28;20457;-78
2021/11/17 08:31:24;;;;;;;12.02;6.60;;;9.80;75.90;;;;;;5051696;28;20119;-78
2021/11/17 08:33:51;;;;;;;11.63;7.10;;;9.80;75.90;;;;;;5069252;28;20485;-79
2021/11/17 08:36:17;;;;;;;11.73;6.72;;;9.80;75.90;;;;;;5051926;28;20125;-82
2021/11/17 08:38:44;;;;;;;11.98;6.85;;;9.80;75.80;;;;;;5052602;28;20087;-78
2021/11/17 08:41:11;;;;;;;10.45;6.32;;;9.90;75.90;;;;;;5053424;28;20060;-78
2021/11/17 08:43:39;;;;;;;11.38;6.47;;;9.90;75.90;;;;;;5051723;28;20476;-79
2021/11/17 08:46:05;;;;;;;12.60;6.82;;;9.90;76.00;;;;;;5053551;28;20472;-79
2021/11/17 08:48:33;;;;;;;11.13;6.28;;;9.90;75.90;;;;;;5055494;28;20033;-78
2021/11/17 08:51:01;;;;;;;11.20;6.40;;;9.90;75.90;;;;;;5056827;28;20059;-80
2021/11/17 08:53:31;;;;;;;10.65;6.38;;;9.90;75.90;;;;;;5055077;28;20115;-79
2021/11/17 08:55:58;;;;;;;11.52;6.75;;;9.90;75.90;;;;;;5056653;28;20025;-78
2021/11/17 08:58:25;;;;;;;10.57;6.80;;;9.90;75.90;;;;;;5055364;28;20033;-79
2021/11/17 09:00:52;;;;;;;10.82;6.60;;;9.90;75.90;;;;;;5055265;28;20063;-79
2021/11/17 09:03:19;;;;;;;12.63;7.07;;;9.90;75.90;;;;;;5056385;28;20102;-80
2021/11/17 09:05:48;;;;;;;10.75;6.45;;;9.90;75.90;;;;;;5072023;28;20028;-78
2021/11/17 09:08:15;;;;;;;11.40;6.95;;;10.00;76.00;;;;;;5071508;28;20029;-79
2021/11/17 09:10:47;;;;;;;11.27;7.05;;;10.00;76.00;;;;;;5056680;28;20033;-79
2021/11/17 09:13:14;;;;;;;10.93;7.10;;;10.00;76.00;;;;;;5056115;28;20029;-79
2021/11/17 09:15:42;;;;;;;11.70;6.70;;;10.00;76.00;;;;;;5056352;28;20024;-81
2021/11/17 09:18:10;;;;;;;12.80;7.30;;;10.00;76.00;;;;;;5055492;28;20052;-79
2021/11/17 09:20:36;;;;;;;11.25;6.85;;;10.00;76.00;;;;;;5055228;28;20383;-79
2021/11/17 09:23:05;;;;;;;13.23;7.35;;;10.00;76.00;;;;;;5054866;28;20036;-79
2021/11/17 09:25:31;;;;;;;10.80;6.43;;;10.00;76.00;;;;;;5071362;28;20480;-79
2021/11/17 09:27:57;;;;;;;11.95;7.15;;;10.00;76.00;;;;;;5071527;28;20037;-82
2021/11/17 09:30:29;;;;;;;12.38;7.30;;;10.10;76.10;;;;;;5054735;28;20021;-81
2021/11/17 09:32:58;;;;;;;12.55;7.63;;;10.00;76.00;;;;;;5054778;28;20478;-78
2021/11/17 09:35:24;;;;;;;12.60;7.43;;;10.00;76.00;;;;;;5055407;28;20116;-79
2021/11/17 09:37:52;;;;;;;13.13;7.03;;;10.10;76.00;;;;;;5070610;28;20044;-79
2021/11/17 09:40:23;;;;;;;13.77;7.13;;;10.10;76.10;;;;;;5070908;28;20029;-79
2021/11/17 09:42:49;;;;;;;12.70;7.35;;;10.10;76.10;;;;;;5054873;28;20355;-79
2021/11/17 09:45:16;;;;;;;12.95;7.05;;;10.10;76.00;;;;;;5054408;28;20028;-80
2021/11/17 09:47:44;;;;;;;13.40;7.40;;;10.10;76.00;;;;;;5055807;28;20131;-79
2021/11/17 09:50:18;;;;;;;11.73;7.28;;;10.10;76.00;;;;;;5070878;28;20025;-79
2021/11/17 09:52:56;;;;;;;12.90;7.32;;;10.10;76.00;;;;;;5055088;28;20464;-79
2021/11/17 09:55:33;;;;;;;12.80;7.25;;;10.20;76.10;;;;;;5054710;28;20028;-79
2021/11/17 09:58:08;;;;;;;12.35;6.97;;;10.20;76.00;;;;;;5053963;28;20075;-79
2021/11/17 10:00:57;;;;;;;12.48;7.47;;;10.20;76.10;;;;;;5054391;28;20033;-80
2021/11/17 10:03:40;;;;;;;12.32;7.20;;;10.20;76.00;;;;;;5071146;28;20029;-80
2021/11/17 10:07:19;;;;;;;11.80;6.55;;;10.20;76.10;;;;;;5071107;28;20025;-80
2021/11/17 10:14:23;;;;;;;13.40;7.20;;;10.20;76.10;;;;;;5054587;28;20094;-80
2021/11/17 10:16:50;;;;;;;10.18;6.75;;;10.20;76.10;;;;;;5053869;28;20033;-79
2021/11/17 10:19:21;;;;;;;14.18;7.20;;;10.20;76.10;;;;;;5054358;28;20035;-80
2021/11/17 10:22:05;;;;;;;13.38;7.90;;;10.30;76.10;;;;;;5055792;28;20086;-79
2021/11/17 10:24:46;;;;;;;12.23;7.13;;;10.30;76.20;;;;;;5070992;28;20469;-80
2021/11/17 10:27:19;;;;;;;11.00;6.47;;;10.30;76.10;;;;;;5053912;28;20039;-80
2021/11/17 10:30:10;;;;;;;10.80;6.63;;;10.30;76.00;;;;;;5054131;28;20025;-80
2021/11/17 10:32:46;;;;;;;13.98;7.53;;;10.30;76.10;;;;;;5053776;28;20044;-80
2021/11/17 10:35:24;;;;;;;13.00;7.32;;;10.30;76.10;;;;;;5054069;28;20025;-79
2021/11/17 10:38:18;;;;;;;12.38;7.50;;;10.30;76.00;;;;;;5053733;28;20045;-79
2021/11/17 10:40:55;;;;;;;14.18;7.15;;;10.40;76.20;;;;;;5051381;28;20049;-80
2021/11/17 10:43:34;;;;;;;13.00;7.32;;;10.40;76.10;;;;;;5053741;28;20036;-78
2021/11/17 10:46:10;;;;;;;13.85;8.30;;;10.40;76.10;;;;;;5054560;28;20028;-81
2021/11/17 10:48:52;;;;;;;12.88;8.05;;;10.40;76.10;;;;;;5070295;28;20056;-79
2021/11/17 10:51:32;;;;;;;12.18;8.45;;;10.40;76.00;;;;;;5054581;28;20040;-81
2021/11/17 10:54:00;;;;;;;13.02;7.55;;;10.40;76.10;;;;;;5052919;28;20067;-77
2021/11/17 10:56:28;;;;;;;14.85;8.38;;;10.50;76.10;;;;;;5053137;28;20021;-77
2021/11/17 10:58:57;;;;;;;15.55;8.45;;;10.50;76.10;;;;;;5053251;28;20086;-76
2021/11/17 11:01:44;;;;;;;15.52;8.70;;;10.50;76.10;;;;;;5054236;28;20075;-77
2021/11/17 11:04:22;;;;;;;15.80;8.38;;;10.50;76.20;;;;;;5054159;28;20033;-79
2021/11/17 11:07:00;;;;;;;16.52;8.32;;;10.50;76.00;;;;;;5052896;28;20047;-78
2021/11/17 11:09:42;;;;;;;13.45;8.07;;;10.60;76.10;;;;;;5053058;28;20037;-80
2021/11/17 11:12:09;;;;;;;15.38;8.63;;;10.60;76.10;;;;;;5053616;28;20024;-77
2021/11/17 11:14:49;;;;;;;17.00;9.27;;;10.60;76.00;;;;;;5054195;28;20028;-77
2021/11/17 11:17:46;;;;;;;16.63;8.18;;;10.60;76.10;;;;;;5053727;28;20041;-79
2021/11/17 11:20:18;;;;;;;16.40;8.40;;;10.60;76.20;;;;;;5040824;28;20055;-77
2021/11/17 11:23:02;;;;;;;16.77;9.02;;;10.60;76.00;;;;;;5052221;28;20029;-79
2021/11/17 11:25:52;;;;;;;13.77;7.85;;;10.70;76.20;;;;;;5054920;28;20037;-79
2021/11/17 11:28:21;;;;;;;14.82;8.43;;;10.60;76.10;;;;;;5052593;28;20067;-78
2021/11/17 11:31:10;;;;;;;14.85;8.98;;;10.70;76.00;;;;;;5053388;28;20530;-79
2021/11/17 11:33:50;;;;;;;18.33;9.07;;;10.70;76.20;;;;;;5067982;28;20050;-78
2021/11/17 11:36:15;;;;;;;15.15;8.93;;;10.70;76.00;;;;;;5053404;28;20033;-79
2021/11/17 11:38:49;;;;;;;16.17;9.32;;;10.70;76.00;;;;;;5053150;28;20128;-79
2021/11/17 11:41:43;;;;;;;16.70;9.05;;;10.70;76.00;;;;;;5069554;28;20033;-78
2021/11/17 11:44:22;;;;;;;14.77;8.68;;;10.80;76.20;;;;;;5053504;28;20033;-78
2021/11/17 11:46:57;;;;;;;15.25;8.60;;;10.80;76.30;;;;;;5052463;28;20024;-79
2021/11/17 11:49:38;;;;;;;15.82;9.25;;;10.80;76.10;;;;;;5052510;28;20035;-81
2021/11/17 11:52:22;;;;;;;13.73;8.20;;;10.90;76.20;;;;;;5052298;28;20454;-79
2021/11/17 11:54:51;;;;;;;17.52;9.40;;;10.80;76.10;;;;;;5052130;28;20029;-78
2021/11/17 11:57:35;;;;;;;15.93;8.93;;;10.90;76.00;;;;;;5053780;28;20429;-79
2021/11/17 12:00:25;;;;;;;15.68;9.88;;;10.90;76.20;;;;;;5054117;28;20024;-79
2021/11/17 12:02:57;;;;;;;13.93;8.27;;;10.90;76.00;;;;;;5053352;28;20032;-79
2021/11/17 12:05:53;;;;;;;15.15;9.32;;;11.00;76.00;;;;;;5052339;28;20052;-81
2021/11/17 12:08:48;;;;;;;14.55;8.65;;;11.00;76.10;;;;;;5052632;28;20511;-80
2021/11/17 12:11:21;;;;;;;14.15;8.50;;;11.00;76.00;;;;;;5053778;28;20031;-79
2021/11/17 12:14:07;;;;;;;15.52;9.02;;;11.10;75.90;;;;;;5051991;28;20032;-80
2021/11/17 12:16:42;;;;;;;15.27;8.88;;;11.10;76.00;;;;;;5069508;28;20485;-79
2021/11/17 12:19:22;;;;;;;15.98;9.13;;;11.10;76.00;;;;;;5052350;28;20045;-77
2021/11/17 12:21:55;;;;;;;14.25;8.20;;;11.10;76.00;;;;;;5055469;28;20100;-80
2021/11/17 12:24:31;;;;;;;15.10;8.63;;;11.10;76.00;;;;;;5057469;28;20039;-78
2021/11/17 12:27:08;;;;;;;14.73;9.15;;;11.20;76.10;;;;;;5056756;28;20035;-79
2021/11/17 12:29:56;;;;;;;17.13;9.13;;;11.20;76.10;;;;;;5057552;28;20036;-81
2021/11/17 12:32:22;;;;;;;14.77;9.05;;;11.20;76.10;;;;;;5056055;28;20094;-80
2021/11/17 12:34:59;;;;;;;16.15;9.65;;;11.20;75.90;;;;;;5055986;28;20032;-81
2021/11/17 12:37:30;;;;;;;14.93;9.52;;;11.30;76.10;;;;;;5056495;28;20037;-80
2021/11/17 12:40:14;;;;;;;15.65;10.30;;;11.30;76.60;;;;;;5057279;28;20029;-80
2021/11/17 12:42:51;;;;;;;15.90;9.60;;;11.30;76.80;;;;;;5057256;28;20481;-81
2021/11/17 12:45:25;;;;;;;18.83;9.98;;;11.40;76.10;;;;;;5056836;28;20025;-81
2021/11/17 12:47:59;;;;;;;18.27;10.27;;;11.40;76.10;;;;;;5056817;28;20037;-80
2021/11/17 12:50:30;;;;;;;16.35;10.85;;;11.40;76.10;;;;;;5056712;28;20090;-80
2021/11/17 12:53:21;;;;;;;19.02;10.20;;;11.40;76.00;;;;;;5039332;28;20033;-81
2021/11/17 12:55:56;;;;;;;16.63;9.57;;;11.50;76.10;;;;;;5055362;28;20035;-81
2021/11/17 12:58:39;;;;;;;17.95;9.82;;;11.60;76.10;;;;;;5072647;28;20486;-82
2021/11/17 13:01:14;;;;;;;18.05;10.35;;;11.60;76.20;;;;;;5056081;28;20029;-81
2021/11/17 13:03:49;;;;;;;18.23;9.90;;;11.60;76.10;;;;;;5057328;28;20029;-82
2021/11/17 13:06:21;;;;;;;;;;;11.70;76.20;;;;;;5057000;28;20025;-79
2021/11/17 13:09:09;;;;;;;15.73;9.65;;;11.70;76.00;;;;;;5055328;28;19923;-80
2021/11/17 13:12:12;;;;;;;15.10;9.60;;;11.70;76.10;;;;;;5055936;28;20103;-79
2021/11/17 13:14:52;;;;;;;16.60;9.57;;;11.70;76.10;;;;;;5056519;28;20041;-78
2021/11/17 13:17:33;;;;;;;16.35;9.63;;;11.70;76.10;;;;;;5055294;28;20037;-79
2021/11/17 13:20:25;;;;;;;15.10;9.95;;;11.70;76.00;;;;;;5055789;28;20159;-78
2021/11/17 13:23:32;;;;;;;16.05;10.18;;;11.80;76.10;;;;;;5046636;28;20037;-80
2021/11/17 13:26:13;;;;;;;15.98;9.55;;;11.80;76.10;;;;;;5055361;28;20421;-80
2021/11/17 13:28:49;;;;;;;17.55;10.85;;;11.90;76.00;;;;;;5055025;28;20480;-81
2021/11/17 13:31:34;;;;;;;16.83;10.55;;;11.90;75.80;;;;;;5071975;28;20071;-79
2021/11/17 13:34:09;;;;;;;14.93;9.68;;;11.90;75.90;;;;;;5087085;28;20041;-80
2021/11/17 13:36:35;;;;;;;;;;;11.90;75.70;;;;;;5056224;28;20033;-80
2021/11/17 13:39:02;;;;;;;15.32;9.10;;;12.00;75.70;;;;;;5055653;28;19913;-80
2021/11/17 13:41:28;;;;;;;15.65;9.48;;;12.00;75.60;;;;;;5054785;28;20037;-79
2021/11/17 13:43:53;;;;;;;15.32;9.65;;;12.00;75.60;;;;;;5054788;28;20036;-80
2021/11/17 13:46:20;;;;;;;16.25;10.35;;;12.00;75.60;;;;;;5054908;28;20029;-80
2021/11/17 13:48:49;;;;;;;14.57;9.90;;;12.00;75.60;;;;;;5088593;28;20025;-80
2021/11/17 13:51:19;;;;;;;14.13;9.23;;;12.00;75.60;;;;;;5055279;28;20056;-80
2021/11/17 13:53:45;;;;;;;14.95;9.50;;;12.10;75.60;;;;;;5054833;28;20075;-80
2021/11/17 13:56:32;;;;;;;13.80;8.93;;;12.10;75.60;;;;;;5054369;28;20036;-80
2021/11/17 13:58:58;;;;;;;13.80;8.73;;;12.10;75.70;;;;;;5055067;28;20047;-80
2021/11/17 14:01:24;;;;;;;13.55;8.75;;;12.20;75.60;;;;;;5054433;28;20033;-79
2021/11/17 14:03:50;;;;;;;12.55;8.35;;;12.20;75.60;;;;;;5071289;28;20025;-80
2021/11/17 14:06:19;;;;;;;13.57;8.38;;;12.30;75.60;;;;;;5054232;28;20025;-79
2021/11/17 14:08:45;;;;;;;15.38;8.82;;;12.30;75.60;;;;;;5055511;28;20481;-79
2021/11/17 14:11:11;;;;;;;13.50;8.38;;;12.30;75.50;;;;;;5037781;28;20025;-80
2021/11/17 14:13:38;;;;;;;13.23;8.32;;;12.30;75.50;;;;;;5053900;28;20079;-79
2021/11/17 14:16:04;;;;;;;15.30;8.68;;;12.40;75.50;;;;;;5054928;28;20025;-79
2021/11/17 14:18:31;;;;;;;13.48;8.57;;;12.40;75.40;;;;;;5053945;28;20374;-79
2021/11/17 14:20:58;;;;;;;11.75;8.27;;;12.40;75.40;;;;;;5070613;28;20029;-80
2021/11/17 14:23:25;;;;;;;11.98;7.70;;;12.40;75.30;;;;;;5054427;28;20025;-78
2021/11/17 14:25:51;;;;;;;11.77;7.75;;;12.50;75.30;;;;;;5070076;28;20036;-78
2021/11/17 14:28:28;;;;;;;11.75;7.13;;;12.50;75.20;;;;;;5054460;28;20362;-78
2021/11/17 14:31:09;;;;;;;11.45;7.80;;;12.50;75.30;;;;;;5048776;28;20481;-79
2021/11/17 14:33:35;;;;;;;11.48;7.40;;;12.50;75.20;;;;;;5053603;28;20110;-79
2021/11/17 14:36:09;;;;;;;10.85;7.22;;;12.50;75.10;;;;;;5053849;28;20054;-78
2021/11/17 14:38:35;;;;;;;12.43;7.35;;;12.60;75.20;;;;;;5070300;28;20155;-78
2021/11/17 14:41:03;;;;;;;12.73;8.05;;;12.60;75.20;;;;;;5053761;28;20048;-79
2021/11/17 14:43:28;;;;;;;11.20;7.05;;;12.60;75.20;;;;;;5053480;28;20037;-79
2021/11/17 14:45:54;;;;;;;9.57;6.35;;;12.60;75.10;;;;;;5053536;28;20028;-79
2021/11/17 14:48:21;;;;;;;9.77;6.10;;;12.60;75.10;;;;;;5036526;28;20557;-80
2021/11/17 14:50:49;;;;;;;10.27;6.43;;;12.70;75.20;;;;;;5053469;28;20112;-79
2021/11/17 14:53:16;;;;;;;9.55;5.90;;;12.70;75.20;;;;;;5053314;28;20094;-79
2021/11/17 14:55:42;;;;;;;10.25;5.97;;;12.70;75.20;;;;;;5053186;28;20016;-80
2021/11/17 14:58:08;;;;;;;8.88;5.75;;;12.70;75.10;;;;;;5052988;28;20037;-79
2021/11/17 15:00:48;;;;;;;9.55;5.63;;;12.70;75.10;;;;;;5054095;28;20473;-79
2021/11/17 15:03:14;;;;;;;8.02;5.03;;;12.70;75.10;;;;;;5053956;28;20033;-80
2021/11/17 15:05:40;;;;;;;8.20;4.82;;;12.80;75.10;;;;;;5053419;28;20017;-79
2021/11/17 15:08:06;;;;;;;8.45;4.95;;;12.80;75.10;;;;;;5053038;28;20527;-78
2021/11/17 15:10:32;;;;;;;8.02;4.78;;;12.80;75.10;;;;;;5052941;28;20040;-79
2021/11/17 15:12:58;;;;;;;7.78;4.88;;;12.80;75.00;;;;;;5054082;28;20479;-80
2021/11/17 15:15:29;;;;;;;10.45;4.95;;;12.80;75.00;;;;;;5053311;28;20087;-79
2021/11/17 15:17:55;;;;;;;6.95;4.28;;;12.80;75.00;;;;;;5052982;28;20047;-79
2021/11/17 15:20:23;;;;;;;8.63;4.82;;;12.80;75.00;;;;;;5052651;28;20017;-80
2021/11/17 15:22:50;;;;;;;8.50;4.68;;;12.80;75.00;;;;;;5053880;28;20033;-78
2021/11/17 15:25:26;;;;;;;7.00;4.00;;;12.80;75.00;;;;;;5052536;28;20504;-78
2021/11/17 15:28:01;;;;;;;7.68;3.83;;;12.80;75.00;;;;;;5054342;28;20037;-79
2021/11/17 15:30:31;;;;;;;6.28;3.60;;;12.80;74.90;;;;;;5053534;28;20033;-78
2021/11/17 15:32:57;;;;;;;6.22;3.50;;;12.90;75.00;;;;;;5054038;28;20068;-79
2021/11/17 15:35:25;;;;;;;6.53;3.75;;;12.80;74.90;;;;;;5053809;28;20496;-78
2021/11/17 15:37:52;;;;;;;6.40;3.75;;;12.80;74.90;;;;;;5052468;28;20405;-78
2021/11/17 15:40:21;;;;;;;6.85;4.00;;;12.90;75.00;;;;;;5052430;28;20120;-78
2021/11/17 15:42:50;;;;;;;6.55;4.22;;;12.80;74.90;;;;;;5069911;28;20063;-79
2021/11/17 15:45:17;;;;;;;6.20;3.53;;;12.90;74.90;;;;;;5053532;28;20020;-79
2021/11/17 15:47:44;;;;;;;5.65;3.30;;;12.90;74.90;;;;;;5052663;28;20044;-78
2021/11/17 15:50:15;;;;;;;6.03;3.50;;;12.80;74.80;;;;;;5052502;28;20075;-78
2021/11/17 15:52:41;;;;;;;5.55;3.20;;;12.80;74.80;;;;;;5053486;28;20504;-78
2021/11/17 15:55:08;;;;;;;5.63;3.20;;;12.80;74.80;;;;;;5052061;28;20041;-79
2021/11/17 15:57:34;;;;;;;5.93;3.13;;;12.80;74.80;;;;;;5053370;28;20045;-77